createdAt,value
2019-05-25T00:00:59.459Z,6.43
2019-05-25T00:03:28.815Z,6.80
2019-05-25T00:05:59.052Z,6.33
2019-05-25T00:08:28.470Z,5.90
2019-05-25T00:10:58.321Z,5.93
2019-05-25T00:13:28.151Z,5.97
2019-05-25T00:15:58.068Z,5.10
2019-05-25T00:18:27.754Z,5.97
2019-05-25T00:20:57.067Z,6.20
2019-05-25T00:23:26.626Z,6.07
2019-05-25T00:25:55.891Z,5.07
2019-05-25T00:28:25.240Z,4.97
2019-05-25T00:30:54.742Z,5.40
2019-05-25T00:33:24.390Z,5.40
2019-05-25T00:35:53.645Z,5.80
2019-05-25T00:38:25.512Z,5.03
2019-05-25T00:40:54.620Z,5.80
2019-05-25T00:43:24.045Z,5.33
2019-05-25T00:45:53.617Z,5.67
2019-05-25T00:48:22.838Z,5.83
2019-05-25T00:50:51.925Z,5.97
2019-05-25T00:53:21.230Z,5.37
2019-05-25T00:55:50.495Z,5.33
2019-05-25T00:58:20.303Z,4.97
2019-05-25T01:00:50.283Z,5.10
2019-05-25T01:03:19.553Z,5.40
2019-05-25T01:05:48.757Z,4.70
2019-05-25T01:08:18.241Z,5.13
2019-05-25T01:10:47.666Z,5.17
2019-05-25T01:13:17.139Z,4.93
2019-05-25T01:15:46.512Z,5.67
2019-05-25T01:18:15.917Z,5.00
2019-05-25T01:20:45.110Z,5.42
2019-05-25T01:23:14.456Z,4.90
2019-05-25T01:25:43.807Z,5.07
2019-05-25T01:28:13.459Z,4.43
2019-05-25T01:30:42.876Z,5.00
2019-05-25T01:33:12.224Z,5.20
2019-05-25T01:35:41.506Z,4.92
2019-05-25T01:38:10.518Z,5.00
2019-05-25T01:40:39.536Z,4.75
2019-05-25T01:43:08.548Z,4.72
2019-05-25T01:45:37.618Z,5.00
2019-05-25T01:48:06.954Z,4.80
2019-05-25T01:50:37.519Z,4.75
2019-05-25T01:53:06.716Z,4.50
2019-05-25T01:55:36.503Z,4.90
2019-05-25T01:58:05.650Z,5.20
2019-05-25T02:00:34.685Z,4.75
2019-05-25T02:03:03.880Z,4.70
2019-05-25T02:05:32.959Z,4.50
2019-05-25T02:08:02.080Z,3.98
2019-05-25T02:10:31.848Z,3.85
2019-05-25T02:13:01.488Z,4.30
2019-05-25T02:15:32.152Z,4.15
2019-05-25T02:18:01.435Z,3.87
2019-05-25T02:20:30.805Z,3.58
2019-05-25T02:23:00.042Z,3.65
2019-05-25T02:25:29.322Z,3.92
2019-05-25T02:27:58.564Z,3.50
2019-05-25T02:30:29.190Z,3.72
2019-05-25T02:33:00.660Z,4.07
2019-05-25T02:35:29.855Z,3.67
2019-05-25T02:37:58.930Z,3.90
2019-05-25T02:40:29.502Z,3.92
2019-05-25T02:42:59.130Z,4.10
2019-05-25T02:45:28.554Z,3.80
2019-05-25T02:47:58.091Z,3.98
2019-05-25T02:50:27.162Z,4.07
2019-05-25T02:52:56.435Z,3.55
2019-05-25T02:55:34.349Z,3.58
2019-05-25T02:57:57.182Z,3.70
2019-05-25T03:00:33.730Z,3.77
2019-05-25T03:03:04.090Z,3.90
2019-05-25T03:05:33.606Z,4.08
2019-05-25T03:08:03.121Z,4.20
2019-05-25T03:10:33.058Z,3.90
2019-05-25T03:13:04.031Z,3.90
2019-05-25T03:15:33.180Z,3.90
2019-05-25T03:18:02.253Z,3.80
2019-05-25T03:20:31.756Z,4.45
2019-05-25T03:23:01.360Z,4.17
2019-05-25T03:25:32.012Z,4.03
2019-05-25T03:28:01.603Z,3.87
2019-05-25T03:30:33.458Z,4.10
2019-05-25T03:33:02.604Z,4.05
2019-05-25T03:35:32.517Z,4.10
2019-05-25T03:38:02.754Z,4.30
2019-05-25T03:40:31.924Z,4.50
2019-05-25T03:43:01.931Z,4.30
2019-05-25T03:45:31.322Z,4.33
2019-05-25T03:48:00.485Z,4.50
2019-05-25T03:50:30.718Z,4.60
2019-05-25T03:53:00.129Z,4.30
2019-05-25T03:55:30.027Z,3.90
2019-05-25T03:58:00.133Z,4.33
2019-05-25T04:00:34.246Z,4.60
2019-05-25T04:03:03.764Z,4.65
2019-05-25T04:05:33.486Z,4.55
2019-05-25T04:08:03.472Z,5.60
2019-05-25T04:10:32.682Z,4.80
2019-05-25T04:13:01.779Z,4.28
2019-05-25T04:15:31.291Z,4.78
2019-05-25T04:18:00.625Z,4.87
2019-05-25T04:20:29.990Z,4.20
2019-05-25T04:22:59.121Z,4.58
2019-05-25T04:25:28.425Z,4.37
2019-05-25T04:27:58.402Z,4.53
2019-05-25T04:30:27.628Z,4.90
2019-05-25T04:32:57.285Z,4.85
2019-05-25T04:35:26.553Z,5.30
2019-05-25T04:37:55.921Z,5.20
2019-05-25T04:40:26.357Z,4.83
2019-05-25T04:42:56.221Z,4.80
2019-05-25T04:45:25.566Z,5.12
2019-05-25T04:47:55.420Z,4.95
2019-05-25T04:50:24.744Z,4.97
2019-05-25T04:52:55.908Z,5.40
2019-05-25T04:55:25.354Z,5.17
2019-05-25T04:57:54.833Z,5.30
2019-05-25T05:00:23.859Z,5.50
2019-05-25T05:02:53.322Z,5.47
2019-05-25T05:05:22.385Z,5.22
2019-05-25T05:07:52.962Z,5.65
2019-05-25T05:10:22.337Z,5.60
2019-05-25T05:12:51.858Z,5.90
2019-05-25T05:15:22.653Z,6.15
2019-05-25T05:17:53.284Z,6.28
2019-05-25T05:20:23.610Z,6.28
2019-05-25T05:22:53.288Z,6.30
2019-05-25T05:25:22.964Z,5.80
2019-05-25T05:27:52.970Z,6.47
2019-05-25T05:30:31.967Z,6.53
2019-05-25T05:33:01.686Z,7.17
2019-05-25T05:35:32.697Z,7.08
2019-05-25T05:38:06.825Z,6.87
2019-05-25T05:40:37.784Z,7.28
2019-05-25T05:43:11.921Z,7.15
2019-05-25T05:45:42.824Z,7.35
2019-05-25T05:48:14.318Z,7.58
2019-05-25T05:50:44.769Z,7.33
2019-05-25T05:53:14.644Z,7.50
2019-05-25T05:55:44.096Z,7.35
2019-05-25T05:58:13.291Z,7.15
2019-05-25T06:00:42.958Z,7.05
2019-05-25T06:03:15.610Z,7.25
2019-05-25T06:05:44.797Z,7.50
2019-05-25T06:08:13.947Z,7.70
2019-05-25T06:10:42.918Z,7.03
2019-05-25T06:13:14.946Z,7.93
2019-05-25T06:15:44.491Z,6.90
2019-05-25T06:18:13.632Z,7.17
2019-05-25T06:20:42.634Z,6.97
2019-05-25T06:23:12.661Z,6.97
2019-05-25T06:25:41.893Z,7.25
2019-05-25T06:28:11.247Z,10.38
2019-05-25T06:30:40.811Z,7.87
2019-05-25T06:33:10.100Z,7.57
2019-05-25T06:35:39.468Z,7.83
2019-05-25T06:38:08.954Z,7.37
2019-05-25T06:40:37.988Z,7.78
2019-05-25T06:43:09.383Z,7.47
2019-05-25T06:45:38.743Z,7.95
2019-05-25T06:48:10.661Z,7.12
2019-05-25T06:50:40.050Z,6.85
2019-05-25T06:53:10.057Z,7.00
2019-05-25T06:55:39.027Z,7.90
2019-05-25T06:58:09.959Z,9.40
2019-05-25T07:00:39.167Z,6.90
2019-05-25T07:03:08.366Z,7.23
2019-05-25T07:05:38.023Z,7.20
2019-05-25T07:08:07.561Z,6.40
2019-05-25T07:10:37.645Z,5.80
2019-05-25T07:13:07.356Z,6.67
2019-05-25T07:15:36.502Z,5.90
2019-05-25T07:18:06.747Z,5.93
2019-05-25T07:20:35.842Z,6.00
2019-05-25T07:23:04.913Z,6.47
2019-05-25T07:30:30.863Z,6.55
2019-05-25T07:33:01.957Z,7.27
2019-05-25T07:42:56.589Z,7.22
2019-05-25T10:23:57.893Z,6.60
2019-05-25T10:26:29.447Z,5.67
2019-05-25T10:28:58.935Z,5.43
2019-05-25T10:31:28.709Z,5.28
2019-05-25T10:33:59.932Z,5.62
2019-05-25T10:36:30.787Z,5.35
2019-05-25T10:39:01.971Z,5.45
2019-05-25T10:41:31.509Z,5.17
2019-05-25T10:44:00.658Z,5.75
2019-05-25T10:46:30.163Z,4.60
2019-05-25T10:49:01.688Z,4.70
2019-05-25T10:51:30.889Z,5.50
2019-05-25T10:54:00.269Z,5.08
2019-05-25T10:56:29.785Z,4.60
2019-05-25T10:58:59.625Z,4.83
2019-05-25T11:01:28.830Z,4.40
2019-05-25T11:04:00.652Z,3.90
2019-05-25T11:06:35.015Z,3.52
2019-05-25T11:09:05.599Z,4.80
2019-05-25T11:11:35.586Z,4.63
2019-05-25T11:14:05.360Z,5.07
2019-05-25T11:16:35.133Z,4.90
2019-05-25T11:19:04.301Z,4.80
2019-05-25T11:21:33.802Z,4.33
2019-05-25T11:24:03.962Z,4.27
2019-05-25T11:26:37.699Z,4.83
2019-05-25T11:29:08.522Z,4.50
2019-05-25T11:31:38.045Z,4.80
2019-05-25T11:34:07.522Z,4.33
2019-05-25T11:36:36.597Z,4.90
2019-05-25T11:39:06.820Z,5.83
2019-05-25T11:41:35.934Z,4.80
2019-05-25T11:44:05.182Z,4.57
2019-05-25T11:46:34.783Z,4.73
2019-05-25T11:49:04.281Z,4.63
2019-05-25T11:51:33.536Z,4.77
2019-05-25T11:54:03.131Z,4.90
2019-05-25T11:56:32.065Z,4.97
2019-05-25T11:59:01.477Z,4.37
2019-05-25T12:01:30.546Z,4.83
2019-05-25T12:06:30.768Z,4.50
2019-05-25T12:09:00.217Z,4.90
2019-05-25T12:11:29.223Z,4.17
2019-05-25T12:13:58.146Z,4.60
2019-05-25T12:16:29.041Z,4.47
2019-05-25T12:23:54.648Z,3.40
2019-05-25T12:26:23.722Z,3.63
2019-05-25T12:28:52.736Z,3.60
2019-05-25T12:31:22.111Z,3.70
2019-05-25T12:33:53.221Z,4.10
2019-05-25T12:36:23.563Z,4.50
2019-05-25T12:38:52.991Z,4.20
2019-05-25T12:41:22.049Z,4.43
2019-05-25T12:43:51.056Z,4.10
2019-05-25T12:46:20.214Z,4.20
2019-05-25T12:48:49.578Z,3.83
2019-05-25T12:51:18.937Z,3.97
2019-05-25T12:53:48.373Z,3.80
2019-05-25T12:56:19.217Z,3.83
2019-05-25T12:58:50.327Z,3.43
2019-05-25T13:01:20.982Z,3.83
2019-05-25T13:03:50.325Z,3.60
2019-05-25T13:06:19.832Z,3.60
2019-05-25T13:08:49.115Z,3.33
2019-05-25T13:11:18.349Z,3.20
2019-05-25T13:13:48.095Z,3.10
2019-05-25T13:16:17.771Z,2.87
2019-05-25T13:18:51.047Z,2.40
2019-05-25T13:21:21.723Z,3.10
2019-05-25T13:23:51.874Z,3.33
2019-05-25T13:26:21.598Z,3.57
2019-05-25T13:28:50.752Z,3.47
2019-05-25T13:31:21.106Z,3.40
2019-05-25T13:33:50.087Z,3.40
2019-05-25T13:36:19.140Z,3.80
2019-05-25T13:38:49.478Z,3.87
2019-05-25T13:41:20.676Z,4.00
2019-05-25T13:43:50.252Z,4.17
2019-05-25T13:46:19.644Z,4.03
2019-05-25T13:48:48.679Z,3.77
2019-05-25T13:51:18.113Z,4.53
2019-05-25T13:53:47.778Z,4.50
2019-05-25T13:56:17.373Z,4.73
2019-05-25T13:58:48.534Z,4.37
2019-05-25T14:01:28.009Z,4.50
2019-05-25T14:03:49.723Z,3.90
2019-05-25T14:06:19.443Z,3.73
2019-05-25T14:08:48.690Z,3.10
2019-05-25T14:11:18.498Z,3.50
2019-05-25T14:13:47.601Z,2.90
2019-05-25T14:16:16.894Z,3.00
2019-05-25T14:18:46.139Z,4.07
2019-05-25T14:21:15.529Z,3.80
2019-05-25T14:23:44.606Z,3.43
2019-05-25T14:26:15.579Z,3.20
2019-05-25T14:28:44.902Z,3.60
2019-05-25T14:31:14.755Z,4.40
2019-05-25T14:33:44.248Z,3.80
2019-05-25T14:36:14.029Z,3.47
2019-05-25T14:38:45.197Z,3.80
2019-05-25T14:41:14.633Z,3.73
2019-05-25T14:43:45.747Z,3.50
2019-05-25T14:46:27.455Z,4.30
2019-05-25T14:48:46.523Z,3.67
2019-05-25T14:51:16.019Z,4.70
2019-05-25T14:53:45.402Z,4.43
2019-05-25T14:56:14.707Z,4.10
2019-05-25T14:58:44.172Z,4.10
2019-05-25T15:01:15.426Z,3.37
2019-05-25T15:03:45.882Z,3.53
2019-05-25T15:06:21.007Z,3.63
2019-05-25T15:08:49.537Z,3.70
2019-05-25T15:11:18.971Z,3.60
2019-05-25T15:13:48.065Z,3.50
2019-05-25T15:16:18.525Z,4.00
2019-05-25T15:18:47.972Z,3.10
2019-05-25T15:21:17.322Z,3.47
2019-05-25T15:23:46.861Z,2.70
2019-05-25T15:26:16.401Z,3.63
2019-05-25T15:28:46.418Z,3.30
2019-05-25T15:31:19.666Z,2.80
2019-05-25T15:33:49.136Z,2.73
2019-05-25T15:36:18.804Z,3.00
2019-05-25T15:38:48.487Z,2.50
2019-05-25T15:41:17.783Z,2.70
2019-05-25T15:43:47.878Z,3.07
2019-05-25T15:46:17.176Z,2.97
2019-05-25T15:48:46.533Z,3.20
2019-05-25T15:51:15.688Z,3.60
2019-05-25T15:53:45.802Z,4.00
2019-05-25T15:56:14.906Z,3.37
2019-05-25T15:58:44.735Z,3.60
2019-05-25T16:01:14.221Z,3.97
2019-05-25T16:03:43.942Z,4.03
2019-05-25T16:06:23.722Z,3.97
2019-05-25T16:08:48.503Z,4.00
2019-05-25T16:11:18.272Z,4.37
2019-05-25T16:13:48.117Z,3.83
2019-05-25T16:16:18.420Z,4.23
2019-05-25T16:18:48.210Z,3.40
2019-05-25T16:21:18.054Z,4.50
2019-05-25T16:23:48.375Z,4.43
2019-05-25T16:26:17.506Z,5.43
2019-05-25T16:28:46.612Z,5.30
2019-05-25T16:31:17.222Z,5.23
2019-05-25T16:33:46.398Z,5.67
2019-05-25T16:36:15.987Z,4.83
2019-05-25T16:38:45.783Z,5.20
2019-05-25T16:41:15.352Z,4.97
2019-05-25T16:43:44.794Z,5.47
2019-05-25T16:46:13.894Z,5.00
2019-05-25T16:48:43.617Z,5.97
2019-05-25T16:51:12.812Z,5.03
2019-05-25T16:53:42.112Z,4.60
2019-05-25T16:56:11.550Z,5.13
2019-05-25T16:58:41.533Z,5.20
2019-05-25T17:01:11.025Z,4.97
2019-05-25T17:03:40.113Z,5.57
2019-05-25T17:06:09.532Z,5.00
2019-05-25T17:08:39.326Z,5.90
2019-05-25T17:11:08.618Z,4.90
2019-05-25T17:13:37.770Z,4.87
2019-05-25T17:16:09.431Z,4.33
2019-05-25T17:18:38.947Z,4.47
2019-05-25T17:21:09.817Z,4.57
2019-05-25T17:23:39.353Z,4.60
2019-05-25T17:26:08.669Z,4.10
2019-05-25T17:28:38.185Z,3.90
2019-05-25T17:31:07.208Z,4.17
2019-05-25T17:33:45.911Z,4.00
2019-05-25T17:36:08.349Z,4.40
2019-05-25T17:38:37.460Z,4.10
2019-05-25T17:41:09.879Z,3.77
2019-05-25T17:43:39.162Z,4.47
2019-05-25T17:46:08.860Z,4.03
2019-05-25T17:48:39.352Z,4.00
2019-05-25T17:51:08.906Z,3.30
2019-05-25T17:53:37.876Z,4.40
2019-05-25T17:56:07.934Z,4.03
2019-05-25T17:58:37.638Z,4.23
2019-05-25T18:01:07.382Z,4.60
2019-05-25T18:03:36.855Z,4.67
2019-05-25T18:06:08.193Z,4.80
2019-05-25T18:08:37.299Z,4.93
2019-05-25T18:11:07.722Z,5.90
2019-05-25T18:13:39.655Z,6.70
2019-05-25T18:16:09.167Z,6.40
2019-05-25T18:18:41.485Z,6.60
2019-05-25T18:21:15.425Z,7.30
2019-05-25T18:23:44.759Z,6.80
2019-05-25T18:26:13.850Z,7.70
2019-05-25T18:28:43.288Z,8.23
2019-05-25T18:31:13.583Z,7.03
2019-05-25T18:33:42.920Z,7.77
2019-05-25T18:36:12.500Z,7.45
2019-05-25T18:38:42.087Z,7.20
2019-05-25T18:41:12.042Z,7.28
2019-05-25T18:43:41.853Z,7.00
2019-05-25T18:46:14.647Z,5.57
2019-05-25T18:48:44.766Z,6.03
2019-05-25T18:51:13.903Z,4.83
2019-05-25T18:53:43.304Z,4.57
2019-05-25T18:56:12.718Z,4.77
2019-05-25T18:58:41.907Z,4.50
2019-05-25T19:01:11.276Z,4.80
2019-05-25T19:03:43.270Z,4.80
2019-05-25T19:06:12.377Z,3.93
2019-05-25T19:08:42.959Z,4.30
2019-05-25T19:11:11.859Z,3.50
2019-05-25T19:13:41.258Z,4.83
2019-05-25T19:16:10.860Z,4.80
2019-05-25T19:18:40.266Z,4.53
2019-05-25T19:21:09.358Z,5.37
2019-05-25T19:23:38.354Z,6.20
2019-05-25T19:26:09.161Z,6.20
2019-05-25T19:28:39.703Z,6.47
2019-05-25T19:31:09.458Z,6.93
2019-05-25T19:33:39.860Z,7.20
2019-05-25T19:36:08.878Z,7.47
2019-05-25T19:38:37.925Z,7.43
2019-05-25T19:41:07.729Z,6.87
2019-05-25T19:43:37.235Z,7.83
2019-05-25T19:46:07.488Z,6.97
2019-05-25T19:48:36.858Z,7.07
2019-05-25T19:51:06.039Z,6.57
2019-05-25T19:53:35.874Z,7.33
2019-05-25T19:56:06.394Z,7.43
2019-05-25T19:58:35.510Z,6.50
2019-05-25T20:01:05.563Z,6.63
2019-05-25T20:03:35.529Z,6.73
2019-05-25T20:06:05.085Z,6.73
2019-05-25T20:08:35.972Z,7.03
2019-05-25T20:11:06.338Z,6.93
2019-05-25T20:13:36.210Z,6.43
2019-05-25T20:16:05.421Z,7.17
2019-05-25T20:18:36.459Z,7.60
2019-05-25T20:21:05.934Z,7.10
2019-05-25T20:23:38.143Z,7.07
2019-05-25T20:26:07.992Z,6.20
2019-05-25T20:28:40.884Z,5.93
2019-05-25T20:31:10.239Z,6.23
2019-05-25T20:33:39.270Z,5.60
2019-05-25T20:36:08.546Z,5.10
2019-05-25T20:38:37.748Z,5.40
2019-05-25T20:41:08.004Z,5.40
2019-05-25T20:43:37.481Z,5.50
2019-05-25T20:46:06.606Z,5.73
2019-05-25T20:48:36.011Z,5.97
2019-05-25T20:51:05.422Z,5.70
2019-05-25T20:53:35.139Z,6.20
2019-05-25T20:56:05.119Z,6.53
2019-05-25T20:58:34.347Z,6.00
2019-05-25T21:01:07.462Z,5.60
2019-05-25T21:03:37.805Z,5.70
2019-05-25T21:06:07.207Z,6.00
2019-05-25T21:08:38.715Z,5.40
2019-05-25T21:11:10.157Z,6.20
2019-05-25T21:13:39.305Z,5.90
2019-05-25T21:16:09.306Z,6.43
2019-05-25T21:18:38.645Z,6.27
2019-05-25T21:21:08.704Z,6.87
2019-05-25T21:23:38.098Z,6.17
2019-05-25T21:26:07.154Z,5.87
2019-05-25T21:28:36.355Z,6.50
2019-05-25T21:31:06.160Z,6.83
2019-05-25T21:33:35.200Z,7.37
2019-05-25T21:36:08.646Z,7.40
2019-05-25T21:38:36.633Z,7.30
2019-05-25T21:41:06.139Z,7.20
2019-05-25T21:43:36.186Z,7.40
2019-05-25T21:46:06.370Z,7.43
2019-05-25T21:48:35.698Z,7.73
2019-05-25T21:51:05.356Z,7.60
2019-05-25T21:53:37.978Z,8.33
2019-05-25T21:56:07.165Z,8.23
2019-05-25T21:58:36.665Z,8.40
2019-05-25T22:01:06.791Z,7.87
2019-05-25T22:03:36.155Z,8.13
2019-05-25T22:06:05.669Z,7.95
2019-05-25T22:08:35.006Z,7.85
2019-05-25T22:11:04.903Z,7.45
2019-05-25T22:13:34.297Z,7.78
2019-05-25T22:16:03.871Z,7.87
2019-05-25T22:18:33.166Z,8.13
2019-05-25T22:21:02.433Z,7.40
2019-05-25T22:23:31.538Z,7.67
2019-05-25T22:26:01.466Z,7.78
2019-05-25T22:28:43.666Z,8.48
2019-05-25T22:31:01.942Z,8.03
2019-05-25T22:33:31.339Z,7.43
2019-05-25T22:36:00.934Z,7.80
2019-05-25T22:38:30.627Z,7.93
2019-05-25T22:41:00.426Z,8.37
2019-05-25T22:43:30.378Z,9.47
2019-05-25T22:46:00.057Z,9.07
2019-05-25T22:48:29.840Z,9.00
2019-05-25T22:50:59.453Z,9.63
2019-05-25T22:53:28.998Z,9.10
2019-05-25T22:55:58.338Z,10.10
2019-05-25T22:58:27.754Z,9.23
2019-05-25T23:00:57.174Z,9.80
2019-05-25T23:03:26.566Z,9.63
2019-05-25T23:05:55.678Z,9.23
2019-05-25T23:08:24.749Z,9.98
2019-05-25T23:10:54.420Z,9.70
2019-05-25T23:13:23.793Z,9.18
2019-05-25T23:15:53.230Z,9.30
2019-05-25T23:18:22.885Z,10.60
2019-05-25T23:20:52.237Z,10.10
2019-05-25T23:23:21.668Z,9.05
2019-05-25T23:25:51.241Z,9.80
2019-05-25T23:28:20.256Z,8.83
2019-05-25T23:30:49.411Z,9.43
2019-05-25T23:33:18.760Z,9.45
2019-05-25T23:35:48.310Z,9.40
2019-05-25T23:38:17.951Z,9.95
2019-05-25T23:40:47.424Z,9.48
2019-05-25T23:43:16.953Z,10.13
2019-05-25T23:45:46.418Z,10.78
2019-05-25T23:48:15.985Z,9.55
2019-05-25T23:50:45.574Z,10.23
2019-05-25T23:53:32.751Z,9.40
2019-05-25T23:56:03.754Z,9.83
2019-05-25T23:58:33.279Z,9.78
